Time;durP1;ratioP1;P1;durP2;ratioP2;P2;SDS_P1;SDS_P2;PMS_P1;PMS_P2;Temp;Humidity;BMP_temperature;BMP_pressure;BME280_temperature;BME280_humidity;BME280_pressure;Samples;Min_cycle;Max_cycle;Signal;HPM_P1;HPM_P2
2022/12/30 00:02:06;;;;;;;131.80;76.95;;;7.20;99.90;;;;;;6227925;22;20011;-93
2022/12/30 00:04:33;;;;;;;135.65;76.97;;;7.20;99.90;;;;;;6224561;22;20003;-93
2022/12/30 00:07:00;;;;;;;148.02;83.20;;;7.20;99.90;;;;;;6222280;22;20008;-91
2022/12/30 00:09:30;;;;;;;116.60;69.20;;;7.20;99.90;;;;;;6252182;22;20054;-92
2022/12/30 00:33:06;;;;;;;125.03;73.32;;;7.20;99.90;;;;;;6226852;22;20042;-91
2022/12/30 07:36:59;;;;;;;;;;;;;;;;;;;;;
2022/12/30 07:55:25;;;;;;;;;;;;;;;;;;;;;
2022/12/30 07:58:40;;;;;;;24.20;21.48;;;12.10;99.90;;;;;;6260968;22;20046;-92
2022/12/30 08:01:39;;;;;;;22.35;20.17;;;12.50;99.90;;;;;;6242552;23;20046;-93
2022/12/30 08:04:13;;;;;;;22.17;19.80;;;12.80;99.90;;;;;;6216341;23;20009;-94
2022/12/30 08:07:04;;;;;;;23.70;21.33;;;12.90;99.90;;;;;;6215540;23;20005;-93
2022/12/30 08:09:35;;;;;;;20.92;18.83;;;13.00;99.90;;;;;;6215870;23;20055;-93
2022/12/30 08:12:04;;;;;;;21.67;19.55;;;13.20;99.90;;;;;;6215542;23;20012;-93
2022/12/30 08:14:32;;;;;;;26.42;20.92;;;13.50;99.90;;;;;;6215643;23;20013;-94
2022/12/30 08:17:01;;;;;;;20.95;18.80;;;13.70;99.90;;;;;;6215871;23;20008;-93
2022/12/30 08:19:30;;;;;;;19.50;17.55;;;13.90;99.90;;;;;;6217816;23;20044;-91
2022/12/30 08:21:59;;;;;;;20.23;17.83;;;14.00;99.90;;;;;;6215452;23;20442;-92
2022/12/30 08:24:29;;;;;;;19.20;16.25;;;14.20;99.90;;;;;;6215407;23;20103;-93
2022/12/30 08:26:58;;;;;;;17.52;15.57;;;14.30;99.90;;;;;;6215131;23;20004;-94
2022/12/30 08:29:28;;;;;;;17.23;15.63;;;14.60;99.90;;;;;;6217660;23;20338;-92
2022/12/30 08:32:04;;;;;;;17.85;16.02;;;14.70;99.90;;;;;;6218467;23;20035;-92
2022/12/30 08:34:42;;;;;;;19.13;17.15;;;14.80;99.90;;;;;;6217497;23;20009;-91
2022/12/30 08:37:24;;;;;;;20.88;16.10;;;14.90;99.90;;;;;;6218501;23;20085;-93
2022/12/30 08:40:09;;;;;;;18.58;15.63;;;15.00;99.90;;;;;;6251582;23;20042;-92
2022/12/30 08:43:03;;;;;;;18.58;15.93;;;15.00;99.90;;;;;;6248656;23;20023;-93
2022/12/30 08:45:36;;;;;;;18.00;16.27;;;15.20;99.90;;;;;;6221067;23;20445;-94
2022/12/30 08:48:06;;;;;;;17.65;15.85;;;15.20;99.90;;;;;;6248837;23;20008;-93
2022/12/30 08:50:33;;;;;;;19.85;16.67;;;15.30;99.90;;;;;;6248996;23;20015;-92
2022/12/30 08:53:03;;;;;;;19.08;16.88;;;15.30;99.90;;;;;;6247250;23;20054;-92
2022/12/30 08:56:02;;;;;;;19.58;17.58;;;15.30;99.90;;;;;;6247779;23;20042;-94
2022/12/30 08:59:12;;;;;;;19.48;16.27;;;15.50;99.90;;;;;;6209401;23;20434;-92
2022/12/30 09:02:18;;;;;;;18.52;16.70;;;15.60;99.90;;;;;;6106831;23;20034;-95
2022/12/30 09:05:04;;;;;;;18.60;16.15;;;15.60;99.90;;;;;;6122998;23;20005;-94
2022/12/30 09:08:22;;;;;;;;;;;;;;;;;;;;;
2022/12/30 09:11:12;;;;;;;18.38;16.65;;;15.80;99.90;;;;;;6013955;23;20037;-92
2022/12/30 09:26:22;;;;;;;18.48;16.88;;;16.50;99.90;;;;;;6330692;22;20087;-91
2022/12/30 09:28:50;;;;;;;18.38;16.75;;;16.60;99.90;;;;;;6331430;22;19995;-92
2022/12/30 09:31:17;;;;;;;19.25;17.45;;;16.60;99.90;;;;;;6339154;22;20003;-90
2022/12/30 09:33:44;;;;;;;18.38;16.88;;;16.70;99.90;;;;;;6295448;22;20089;-91
2022/12/30 09:36:14;;;;;;;19.73;18.02;;;16.70;99.90;;;;;;6287948;22;19998;-95
2022/12/30 09:38:41;;;;;;;20.35;18.42;;;16.50;99.90;;;;;;6289998;22;20030;-91
2022/12/30 09:41:09;;;;;;;20.05;18.30;;;16.60;99.90;;;;;;6295553;22;20080;-93
2022/12/30 09:44:12;;;;;;;18.90;17.38;;;16.70;99.90;;;;;;6288593;22;20309;-92
2022/12/30 09:51:15;;;;;;;19.33;17.63;;;16.90;99.90;;;;;;6311585;22;20093;-92
2022/12/30 09:53:50;;;;;;;18.40;16.63;;;16.90;99.90;;;;;;6224326;22;20018;-90
2022/12/30 09:56:42;;;;;;;18.60;16.80;;;16.80;99.90;;;;;;6230335;22;20430;-92
2022/12/30 09:59:21;;;;;;;19.48;17.70;;;16.70;99.90;;;;;;6108693;23;20016;-92
2022/12/30 10:02:07;;;;;;;18.80;17.35;;;16.90;99.90;;;;;;6107973;23;20013;-91
2022/12/30 10:04:38;;;;;;;18.15;16.77;;;16.80;99.90;;;;;;6108537;23;20006;-91
2022/12/30 10:07:23;;;;;;;17.92;16.40;;;16.70;99.90;;;;;;6107483;23;20013;-92
2022/12/30 10:10:24;;;;;;;16.88;15.60;;;16.90;99.90;;;;;;6132049;23;20012;-93
2022/12/30 10:12:59;;;;;;;17.02;15.80;;;17.00;99.90;;;;;;6107882;23;20049;-93
2022/12/30 10:16:09;;;;;;;17.52;15.93;;;17.20;99.90;;;;;;6133676;23;20061;-94
2022/12/30 10:19:04;;;;;;;17.30;15.85;;;17.20;99.90;;;;;;6108525;23;20009;-92
2022/12/30 10:21:41;;;;;;;16.67;15.27;;;17.10;99.90;;;;;;6110459;23;20432;-93
2022/12/30 10:24:39;;;;;;;16.95;15.55;;;17.00;99.90;;;;;;6132464;23;20052;-94
2022/12/30 10:27:19;;;;;;;16.60;15.43;;;17.00;99.90;;;;;;6109209;23;20017;-94
2022/12/30 10:29:46;;;;;;;18.20;16.52;;;17.00;99.90;;;;;;6108811;23;20009;-93
2022/12/30 10:32:18;;;;;;;18.23;16.40;;;17.00;99.90;;;;;;6107664;23;20012;-93
2022/12/30 10:34:56;;;;;;;17.63;16.13;;;17.00;99.90;;;;;;6162172;22;20033;-93
2022/12/30 10:38:14;;;;;;;18.42;16.90;;;17.20;99.90;;;;;;6227340;23;20061;-93
2022/12/30 11:20:54;;;;;;;24.17;19.50;;;17.70;99.90;;;;;;6309686;22;20100;-91
2022/12/30 11:24:16;;;;;;;19.67;17.65;;;17.60;99.90;;;;;;6280351;22;20014;-90
2022/12/30 11:27:00;;;;;;;;;;;;;;;;;;;;;
2022/12/30 11:32:31;;;;;;;18.50;16.70;;;17.60;99.90;;;;;;6249540;22;19930;-93
2022/12/30 11:37:53;;;;;;;19.70;16.92;;;17.70;99.90;;;;;;6273677;22;20070;-93
2022/12/30 11:44:01;;;;;;;19.48;17.40;;;17.40;99.90;;;;;;6297084;22;20371;-93
2022/12/30 11:52:14;;;;;;;18.00;14.82;;;17.30;99.90;;;;;;6224861;23;20039;-91
2022/12/30 11:54:56;;;;;;;17.58;15.85;;;17.40;99.90;;;;;;6137480;23;20339;-92
2022/12/30 11:57:41;;;;;;;16.95;15.25;;;17.60;99.90;;;;;;6161340;23;20012;-91
2022/12/30 12:00:18;;;;;;;19.45;14.85;;;17.80;99.90;;;;;;6162085;23;20017;-92
2022/12/30 12:06:18;;;;;;;17.17;15.35;;;18.00;99.90;;;;;;6309578;22;20037;-92
2022/12/30 12:09:32;;;;;;;18.48;16.75;;;18.10;99.90;;;;;;6282935;22;20007;-93
2022/12/30 12:12:25;;;;;;;19.02;17.17;;;17.90;99.90;;;;;;6164781;23;20116;-93
2022/12/30 12:15:34;;;;;;;29.10;21.95;;;17.60;99.90;;;;;;6134009;23;20036;-92
2022/12/30 12:18:27;;;;;;;24.40;19.90;;;17.30;99.90;;;;;;6207507;22;20024;-94
2022/12/30 12:21:12;;;;;;;17.33;15.88;;;17.10;99.90;;;;;;6195096;23;20159;-95
2022/12/30 12:38:28;;;;;;;16.23;14.73;;;17.50;99.90;;;;;;5883113;24;20463;-93
2022/12/30 12:41:48;;;;;;;20.77;15.77;;;17.40;99.90;;;;;;5933526;23;20386;-93
2022/12/30 12:44:54;;;;;;;16.80;14.95;;;17.20;99.90;;;;;;6010966;23;20175;-92
2022/12/30 12:48:00;;;;;;;15.75;14.40;;;17.00;99.90;;;;;;6101392;22;21063;-93
2022/12/30 12:51:06;;;;;;;16.98;15.20;;;17.00;99.90;;;;;;6269433;22;20096;-91
2022/12/30 12:54:10;;;;;;;16.75;15.30;;;16.90;99.90;;;;;;6241519;22;20075;-91
2022/12/30 12:56:55;;;;;;;16.48;14.82;;;16.90;99.90;;;;;;6228997;22;20008;-94
2022/12/30 15:28:42;;;;;;;24.33;19.38;;;14.60;99.90;;;;;;6283726;22;20038;-91
2022/12/30 15:31:18;;;;;;;22.35;19.73;;;14.50;99.90;;;;;;6257630;22;20086;-91
2022/12/30 15:33:59;;;;;;;32.67;21.00;;;14.40;99.90;;;;;;6284859;22;20011;-94
2022/12/30 15:36:28;;;;;;;29.42;20.52;;;14.30;99.90;;;;;;6282569;22;20012;-93
2022/12/30 15:39:17;;;;;;;23.55;19.50;;;14.10;99.90;;;;;;6240472;22;20083;-95
2022/12/30 15:42:15;;;;;;;42.90;24.75;;;14.00;99.90;;;;;;6204121;23;20020;-93
2022/12/30 15:44:59;;;;;;;41.78;29.77;;;14.00;99.90;;;;;;6222609;23;20004;-94
2022/12/30 15:47:30;;;;;;;45.83;29.37;;;13.90;99.90;;;;;;6248958;22;20008;-93
2022/12/30 15:50:01;;;;;;;39.05;28.38;;;13.80;99.90;;;;;;6225126;23;20008;-95
2022/12/30 15:52:37;;;;;;;36.38;26.38;;;13.80;99.90;;;;;;6223208;23;20011;-95
2022/12/30 15:55:03;;;;;;;33.83;22.45;;;13.60;99.90;;;;;;6221749;23;20111;-90
2022/12/30 15:57:34;;;;;;;30.30;21.80;;;13.60;99.90;;;;;;6221549;22;20008;-93
2022/12/30 16:00:07;;;;;;;24.63;20.98;;;13.50;99.90;;;;;;6220970;23;20015;-93
2022/12/30 16:02:42;;;;;;;32.13;21.50;;;13.40;99.90;;;;;;6220899;23;20004;-92
2022/12/30 16:05:29;;;;;;;24.65;20.27;;;13.40;99.90;;;;;;6221038;23;20425;-94
2022/12/30 16:08:16;;;;;;;34.63;20.73;;;13.30;99.90;;;;;;6221149;23;20040;-91
2022/12/30 16:10:43;;;;;;;28.15;19.02;;;13.20;99.90;;;;;;6220833;23;20381;-90
2022/12/30 16:13:33;;;;;;;23.85;19.00;;;13.10;99.90;;;;;;6222983;23;20000;-90
2022/12/30 16:16:04;;;;;;;30.30;21.98;;;13.10;99.90;;;;;;6240430;23;20005;-92
2022/12/30 16:18:32;;;;;;;24.20;20.33;;;13.10;99.90;;;;;;6230818;23;20008;-91
2022/12/30 16:21:04;;;;;;;32.78;21.88;;;13.10;99.90;;;;;;6222886;23;20393;-92
2022/12/30 16:23:41;;;;;;;33.85;23.25;;;13.10;99.90;;;;;;6222863;23;20460;-92
2022/12/30 16:26:26;;;;;;;31.08;23.23;;;13.00;99.90;;;;;;6221628;23;20004;-91
2022/12/30 16:29:09;;;;;;;34.10;25.08;;;13.10;99.90;;;;;;6227017;23;20008;-93
2022/12/30 16:31:36;;;;;;;26.65;21.60;;;13.20;99.90;;;;;;6220166;23;20429;-91
2022/12/30 16:34:03;;;;;;;32.00;21.65;;;13.20;99.90;;;;;;6220694;23;20127;-92
2022/12/30 16:36:32;;;;;;;33.05;21.23;;;13.20;99.90;;;;;;6221625;23;20035;-90
2022/12/30 16:38:59;;;;;;;28.73;22.52;;;13.20;99.90;;;;;;6215280;23;20320;-93
2022/12/30 16:41:27;;;;;;;28.23;23.42;;;13.20;99.90;;;;;;6240595;23;20021;-92
2022/12/30 16:43:55;;;;;;;33.63;23.80;;;13.10;99.90;;;;;;6240765;23;20000;-94
2022/12/30 16:46:25;;;;;;;36.92;25.08;;;13.10;99.90;;;;;;6240924;23;20439;-93
2022/12/30 16:48:52;;;;;;;32.15;24.30;;;13.00;99.90;;;;;;6240638;22;20016;-93
2022/12/30 16:51:21;;;;;;;36.30;26.92;;;13.00;99.90;;;;;;6240871;23;20011;-93
2022/12/30 16:53:48;;;;;;;40.67;26.80;;;13.00;99.90;;;;;;6241472;23;20028;-92
2022/12/30 16:56:14;;;;;;;36.60;26.85;;;13.00;99.90;;;;;;6244598;23;20039;-90
2022/12/30 16:58:41;;;;;;;43.13;29.52;;;12.90;99.90;;;;;;6240878;22;20027;-91
2022/12/30 17:01:07;;;;;;;54.92;33.25;;;12.90;99.90;;;;;;6240527;23;20095;-92
2022/12/30 17:03:34;;;;;;;57.47;35.90;;;12.90;99.90;;;;;;6240178;23;20430;-91
2022/12/30 17:06:01;;;;;;;47.05;32.40;;;12.90;99.90;;;;;;6240640;23;20097;-90
2022/12/30 17:08:29;;;;;;;48.53;32.15;;;12.80;99.90;;;;;;6240663;23;20005;-90
2022/12/30 17:11:18;;;;;;;50.10;33.72;;;12.80;99.90;;;;;;6240693;23;20008;-90
2022/12/30 17:13:51;;;;;;;45.65;31.55;;;12.80;99.90;;;;;;6240681;23;20009;-89
2022/12/30 17:16:26;;;;;;;47.67;30.35;;;12.70;99.90;;;;;;6190290;23;20096;-91
2022/12/30 17:18:55;;;;;;;52.83;32.67;;;12.60;99.90;;;;;;6240546;22;20009;-90
2022/12/30 17:21:25;;;;;;;54.85;33.92;;;12.50;99.90;;;;;;6240538;23;20039;-91
2022/12/30 17:23:56;;;;;;;43.90;31.00;;;12.50;99.90;;;;;;6240659;23;20005;-90
2022/12/30 17:26:24;;;;;;;43.45;32.03;;;12.30;99.90;;;;;;6240609;23;20058;-90
2022/12/30 17:28:51;;;;;;;50.60;34.15;;;12.20;99.90;;;;;;6240526;22;20011;-90
2022/12/30 17:31:19;;;;;;;48.88;33.95;;;12.10;99.90;;;;;;6240430;23;20461;-90
2022/12/30 17:33:45;;;;;;;54.08;35.90;;;12.10;99.90;;;;;;6240817;23;20009;-90
2022/12/30 17:36:17;;;;;;;47.88;35.40;;;12.00;99.90;;;;;;6240765;23;20067;-90
2022/12/30 17:38:44;;;;;;;60.00;39.38;;;11.90;99.90;;;;;;6240165;22;20020;-91
2022/12/30 17:41:11;;;;;;;50.42;34.40;;;11.90;99.90;;;;;;6215267;23;20020;-90
2022/12/30 17:43:38;;;;;;;62.63;37.70;;;11.90;99.90;;;;;;6240511;23;20013;-92
2022/12/30 17:46:05;;;;;;;59.63;38.08;;;11.80;99.90;;;;;;6240550;23;20013;-91
2022/12/30 17:48:31;;;;;;;59.55;37.50;;;11.80;99.90;;;;;;6240783;23;20009;-90
2022/12/30 17:50:58;;;;;;;63.17;38.22;;;11.70;99.90;;;;;;6240794;22;20036;-90
2022/12/30 17:53:24;;;;;;;70.57;41.70;;;11.70;99.90;;;;;;6240853;23;20051;-91
2022/12/30 17:55:52;;;;;;;57.05;37.20;;;11.70;99.90;;;;;;6240533;23;20015;-92
2022/12/30 17:58:18;;;;;;;60.05;38.58;;;11.70;99.90;;;;;;6240412;23;20009;-92
2022/12/30 18:00:48;;;;;;;57.80;38.03;;;11.60;99.90;;;;;;6240664;22;20409;-93
2022/12/30 18:03:17;;;;;;;56.50;37.80;;;11.60;99.90;;;;;;6240406;23;20008;-90
2022/12/30 18:05:50;;;;;;;61.55;38.85;;;11.50;99.90;;;;;;6240544;23;20012;-91
2022/12/30 18:09:15;;;;;;;56.88;38.17;;;11.50;99.90;;;;;;6244144;23;20012;-93
2022/12/30 18:11:51;;;;;;;62.75;38.95;;;11.50;99.90;;;;;;6196828;23;20009;-91
2022/12/30 18:14:25;;;;;;;61.53;36.25;;;11.60;99.90;;;;;;6251787;23;20103;-90
2022/12/30 18:16:53;;;;;;;55.03;36.10;;;11.60;99.90;;;;;;6241978;23;20086;-91
2022/12/30 18:19:19;;;;;;;48.30;34.35;;;11.60;99.90;;;;;;6242088;23;20016;-91
2022/12/30 18:21:46;;;;;;;58.80;36.53;;;11.70;99.90;;;;;;6242513;23;20039;-91
2022/12/30 18:24:12;;;;;;;58.05;37.60;;;11.70;99.90;;;;;;6242104;23;20051;-89
2022/12/30 18:26:39;;;;;;;55.33;35.88;;;11.70;99.90;;;;;;6212548;23;20012;-92
2022/12/30 18:29:06;;;;;;;51.08;34.33;;;11.70;99.90;;;;;;6242280;23;20059;-91
2022/12/30 18:31:32;;;;;;;46.03;32.33;;;11.70;99.90;;;;;;6242164;22;20017;-89
2022/12/30 18:34:01;;;;;;;51.65;34.95;;;11.70;99.90;;;;;;6242128;23;20047;-93
2022/12/30 18:36:28;;;;;;;50.22;33.58;;;11.80;99.90;;;;;;6242370;23;20008;-91
2022/12/30 18:38:57;;;;;;;56.72;35.42;;;11.70;99.90;;;;;;6241979;22;20016;-92
2022/12/30 18:41:26;;;;;;;48.53;34.63;;;11.70;99.90;;;;;;6216779;23;20026;-91
2022/12/30 18:43:53;;;;;;;49.60;35.20;;;11.70;99.90;;;;;;6242027;23;20008;-90
2022/12/30 18:46:23;;;;;;;49.35;34.53;;;11.60;99.90;;;;;;6241795;23;20016;-90
2022/12/30 18:48:56;;;;;;;53.25;35.83;;;11.50;99.90;;;;;;6242136;23;20009;-91
2022/12/30 18:51:23;;;;;;;58.28;37.10;;;11.50;99.90;;;;;;6242358;22;20028;-90
2022/12/30 18:53:49;;;;;;;54.80;35.78;;;11.40;99.90;;;;;;6242398;23;20391;-90
2022/12/30 18:56:23;;;;;;;55.30;38.22;;;11.40;99.90;;;;;;6242021;23;20010;-91
2022/12/30 18:58:49;;;;;;;58.20;37.22;;;11.30;99.90;;;;;;6241725;23;20055;-91
2022/12/30 19:01:19;;;;;;;60.50;38.72;;;11.20;99.90;;;;;;6216402;23;20075;-91
2022/12/30 19:03:48;;;;;;;60.63;39.17;;;11.20;99.90;;;;;;6241881;23;20009;-90
2022/12/30 19:06:15;;;;;;;53.15;37.90;;;11.10;99.90;;;;;;6241787;23;20344;-89
2022/12/30 19:08:43;;;;;;;66.80;42.50;;;11.00;99.90;;;;;;6242261;23;20005;-92
2022/12/30 19:11:20;;;;;;;59.33;38.22;;;11.00;99.90;;;;;;6242434;22;20005;-91
2022/12/30 19:13:49;;;;;;;57.17;37.50;;;11.00;99.90;;;;;;6242709;23;20032;-92
2022/12/30 19:16:24;;;;;;;73.15;43.65;;;10.90;99.90;;;;;;6242260;23;20004;-90
2022/12/30 19:18:53;;;;;;;84.75;51.25;;;10.90;99.90;;;;;;6241597;23;20012;-91
2022/12/30 19:21:29;;;;;;;62.65;40.92;;;10.90;99.90;;;;;;6192569;23;20138;-94
2022/12/30 19:23:56;;;;;;;75.72;43.45;;;11.00;99.90;;;;;;6242213;23;20004;-91
2022/12/30 19:26:24;;;;;;;64.15;42.17;;;10.90;99.90;;;;;;6241791;23;20011;-90
2022/12/30 19:28:57;;;;;;;57.70;40.10;;;10.90;99.90;;;;;;6241717;23;20009;-91
2022/12/30 19:31:33;;;;;;;58.35;39.78;;;10.80;99.90;;;;;;6242288;22;20004;-92
2022/12/30 19:34:04;;;;;;;56.58;38.95;;;10.80;99.90;;;;;;6241839;23;20524;-91
2022/12/30 19:36:36;;;;;;;67.70;41.45;;;10.70;99.90;;;;;;6241835;23;20008;-91
2022/12/30 19:39:05;;;;;;;57.47;39.20;;;10.70;99.90;;;;;;6215834;23;20039;-89
2022/12/30 19:41:35;;;;;;;63.03;39.45;;;10.70;99.90;;;;;;6241601;22;20452;-91
2022/12/30 19:44:06;;;;;;;63.42;41.28;;;10.70;99.90;;;;;;6191590;23;20008;-91
2022/12/30 19:46:33;;;;;;;58.97;39.63;;;10.60;99.90;;;;;;6191540;23;20040;-91
2022/12/30 19:49:04;;;;;;;57.47;40.47;;;10.60;99.90;;;;;;6217349;23;20333;-92
2022/12/30 19:51:32;;;;;;;57.08;39.50;;;10.50;99.90;;;;;;6245568;23;20082;-94
2022/12/30 20:02:32;;;;;;;72.13;47.28;;;10.50;99.90;;;;;;6316062;22;20076;-90
2022/12/30 20:04:59;;;;;;;68.22;47.50;;;10.50;99.90;;;;;;6257856;22;20060;-91
2022/12/30 20:07:29;;;;;;;68.75;46.67;;;10.50;99.90;;;;;;6256853;22;20033;-93
2022/12/30 20:09:55;;;;;;;69.53;48.05;;;10.50;99.90;;;;;;6282526;22;20015;-90
2022/12/30 20:12:25;;;;;;;70.72;48.67;;;10.50;99.90;;;;;;6259132;22;20041;-90
2022/12/30 20:14:55;;;;;;;80.43;51.20;;;10.40;99.90;;;;;;6285712;22;20185;-92
2022/12/30 20:38:02;;;;;;;83.68;52.58;;;10.70;99.90;;;;;;6257659;22;20026;-93
2022/12/30 20:40:56;;;;;;;73.00;47.40;;;10.70;99.90;;;;;;6239705;22;20023;-93
2022/12/30 20:52:30;;;;;;;80.78;53.45;;;10.80;99.90;;;;;;6312040;22;20030;-91
2022/12/30 20:55:04;;;;;;;88.30;54.67;;;10.80;99.90;;;;;;6261961;22;20004;-93
2022/12/30 20:57:32;;;;;;;95.88;61.78;;;10.80;99.90;;;;;;6283552;22;20007;-91
2022/12/30 20:59:59;;;;;;;96.70;60.95;;;10.90;99.90;;;;;;6257761;22;20011;-94
2022/12/30 21:02:31;;;;;;;95.35;59.35;;;10.90;99.90;;;;;;6261041;22;20010;-93
2022/12/30 21:05:01;;;;;;;81.10;51.15;;;11.00;99.90;;;;;;6258513;22;20355;-95
2022/12/30 21:18:35;;;;;;;73.40;47.55;;;10.80;99.90;;;;;;6283137;22;20019;-93
2022/12/30 21:27:11;;;;;;;82.75;51.10;;;10.60;99.90;;;;;;6304057;22;20038;-96
2022/12/30 21:30:02;;;;;;;81.35;52.95;;;10.60;99.90;;;;;;6317300;22;20014;-95
2022/12/30 21:33:43;;;;;;;89.78;58.90;;;10.50;99.90;;;;;;6223581;23;20343;-94
2022/12/30 21:36:25;;;;;;;92.90;58.72;;;10.50;99.90;;;;;;6137625;23;20041;-94
2022/12/30 22:03:13;;;;;;;81.80;50.92;;;10.00;99.90;;;;;;6045692;23;20006;-93
2022/12/30 22:05:42;;;;;;;80.07;52.47;;;10.00;99.90;;;;;;6069392;23;20011;-92
2022/12/30 22:08:19;;;;;;;72.47;47.95;;;10.00;99.90;;;;;;6070039;23;20007;-92
2022/12/30 22:10:56;;;;;;;100.45;64.28;;;10.00;99.90;;;;;;6149952;23;20013;-95
2022/12/30 22:13:28;;;;;;;93.40;57.60;;;10.00;99.90;;;;;;6137648;23;20107;-93
2022/12/30 22:15:54;;;;;;;79.60;53.30;;;10.10;99.90;;;;;;6137209;23;20039;-93
2022/12/30 22:18:24;;;;;;;83.75;54.00;;;10.10;99.90;;;;;;6138229;23;20001;-94
2022/12/30 22:20:51;;;;;;;85.05;57.10;;;10.00;99.90;;;;;;6137246;23;20017;-94
2022/12/30 22:23:19;;;;;;;90.53;56.55;;;10.00;99.90;;;;;;6139178;23;20087;-93
2022/12/30 22:25:49;;;;;;;92.07;60.50;;;10.00;99.90;;;;;;6261334;22;20013;-94
2022/12/30 22:28:20;;;;;;;91.72;58.75;;;10.00;99.90;;;;;;6270543;22;20022;-96
2022/12/30 22:30:47;;;;;;;85.32;57.63;;;10.00;99.90;;;;;;6283365;22;20082;-93
2022/12/30 22:33:14;;;;;;;105.90;66.28;;;9.80;99.90;;;;;;6257501;22;20015;-92
2022/12/30 22:35:53;;;;;;;87.70;55.75;;;9.80;99.90;;;;;;6257990;22;20004;-96
2022/12/30 22:38:23;;;;;;;96.65;61.25;;;9.70;99.90;;;;;;6287166;22;20038;-95
2022/12/30 22:40:49;;;;;;;76.75;51.75;;;9.70;99.90;;;;;;6285221;22;20042;-94
2022/12/30 22:43:16;;;;;;;98.85;59.65;;;9.60;99.90;;;;;;6257815;22;20007;-92
2022/12/30 22:45:42;;;;;;;85.25;57.58;;;9.70;99.90;;;;;;6257450;22;20030;-92
2022/12/30 22:48:09;;;;;;;80.88;54.22;;;9.80;99.90;;;;;;6282820;22;20010;-93
2022/12/30 22:50:36;;;;;;;93.15;58.28;;;9.70;99.90;;;;;;6257266;22;20008;-92
2022/12/30 22:53:03;;;;;;;85.93;55.95;;;9.60;99.90;;;;;;6257500;22;20014;-93
2022/12/30 22:55:31;;;;;;;87.65;58.50;;;9.50;99.90;;;;;;6258033;22;20420;-93
2022/12/30 22:57:57;;;;;;;83.85;55.30;;;9.50;99.90;;;;;;6250653;22;20030;-93
2022/12/30 23:00:24;;;;;;;103.15;62.17;;;9.50;99.90;;;;;;6257486;22;20057;-93
2022/12/30 23:02:51;;;;;;;85.07;57.05;;;9.50;99.90;;;;;;6258590;22;20007;-93
2022/12/30 23:05:18;;;;;;;88.07;58.00;;;9.50;99.90;;;;;;6257166;22;20010;-95
2022/12/30 23:07:45;;;;;;;97.47;62.33;;;9.50;99.90;;;;;;6257391;22;20014;-95
2022/12/30 23:10:15;;;;;;;87.80;54.60;;;9.40;99.90;;;;;;6257661;22;20080;-92
2022/12/30 23:18:14;;;;;;;86.13;53.83;;;9.30;99.90;;;;;;6282957;22;20460;-94
2022/12/30 23:20:41;;;;;;;89.05;54.90;;;9.20;99.90;;;;;;6256932;22;20076;-92
2022/12/30 23:25:53;;;;;;;103.32;61.97;;;9.20;99.90;;;;;;6287085;22;20075;-92
2022/12/30 23:28:26;;;;;;;82.70;53.45;;;9.20;99.90;;;;;;6295631;22;20009;-92
2022/12/30 23:30:53;;;;;;;82.00;53.83;;;9.20;99.90;;;;;;6265361;22;20034;-94
2022/12/30 23:33:20;;;;;;;81.20;51.38;;;9.10;99.90;;;;;;6259471;22;20099;-94
2022/12/30 23:35:47;;;;;;;78.35;50.42;;;9.10;99.90;;;;;;6257257;22;20007;-92
2022/12/30 23:38:29;;;;;;;84.35;50.13;;;9.10;99.90;;;;;;6257713;22;20003;-94
2022/12/30 23:40:56;;;;;;;79.90;51.10;;;9.00;99.90;;;;;;6257131;22;20019;-93
2022/12/30 23:43:22;;;;;;;79.57;49.63;;;9.00;99.90;;;;;;6257549;22;20059;-94
2022/12/30 23:45:53;;;;;;;76.95;46.08;;;9.00;99.90;;;;;;6257552;22;20019;-92
2022/12/30 23:48:20;;;;;;;78.45;51.58;;;8.90;99.90;;;;;;6257298;22;20007;-94
2022/12/30 23:50:47;;;;;;;82.57;50.83;;;8.80;99.90;;;;;;6256929;22;20000;-92
2022/12/30 23:53:14;;;;;;;97.03;50.55;;;8.80;99.90;;;;;;6256788;22;20089;-93
2022/12/30 23:55:42;;;;;;;149.25;65.20;;;8.80;99.90;;;;;;6257448;22;20012;-95
2022/12/30 23:58:20;;;;;;;119.20;62.85;;;8.80;99.90;;;;;;6261356;22;20091;-94
